sensor_id;sensor_type;location;lat;lon;timestamp;pressure;altitude;pressure_sealevel;temperature;humidity
28000;BME280;15328;50.860;10.562;2024-03-07T00:01:29;97213.72;;;3.39;61.65
28000;BME280;15328;50.860;10.562;2024-03-07T00:06:31;97211.22;;;3.37;61.83
28000;BME280;15328;50.860;10.562;2024-03-07T00:11:32;97203.50;;;3.36;62.08
28000;BME280;15328;50.860;10.562;2024-03-07T00:16:33;97207.63;;;3.38;62.31
28000;BME280;15328;50.860;10.562;2024-03-07T00:21:33;97210.41;;;3.37;61.92
28000;BME280;15328;50.860;10.562;2024-03-07T00:26:34;97206.59;;;3.31;62.32
28000;BME280;15328;50.860;10.562;2024-03-07T00:31:34;97212.13;;;3.28;62.28
28000;BME280;15328;50.860;10.562;2024-03-07T00:36:34;97204.41;;;3.27;62.60
28000;BME280;15328;50.860;10.562;2024-03-07T00:41:35;97198.47;;;3.25;63.23
28000;BME280;15328;50.860;10.562;2024-03-07T00:46:36;97197.13;;;3.21;63.42
28000;BME280;15328;50.860;10.562;2024-03-07T00:51:36;97192.22;;;3.26;63.76
28000;BME280;15328;50.860;10.562;2024-03-07T00:56:36;97186.69;;;3.29;63.91
28000;BME280;15328;50.860;10.562;2024-03-07T01:01:37;97188.03;;;3.33;63.65
28000;BME280;15328;50.860;10.562;2024-03-07T01:06:38;97173.16;;;3.24;63.52
28000;BME280;15328;50.860;10.562;2024-03-07T01:11:43;97172.25;;;3.33;63.93
28000;BME280;15328;50.860;10.562;2024-03-07T01:16:44;97178.72;;;3.47;64.30
28000;BME280;15328;50.860;10.562;2024-03-07T01:21:44;97177.94;;;3.54;64.31
28000;BME280;15328;50.860;10.562;2024-03-07T01:26:44;97173.50;;;3.55;64.84
28000;BME280;15328;50.860;10.562;2024-03-07T01:31:45;97166.50;;;3.63;64.88
28000;BME280;15328;50.860;10.562;2024-03-07T01:36:45;97173.94;;;3.68;65.09
28000;BME280;15328;50.860;10.562;2024-03-07T01:41:45;97171.84;;;3.80;64.90
28000;BME280;15328;50.860;10.562;2024-03-07T01:46:47;97167.63;;;3.87;65.23
28000;BME280;15328;50.860;10.562;2024-03-07T01:51:50;97172.72;;;3.88;65.23
28000;BME280;15328;50.860;10.562;2024-03-07T01:56:50;97163.34;;;3.94;65.30
28000;BME280;15328;50.860;10.562;2024-03-07T02:01:51;97159.75;;;4.03;65.20
28000;BME280;15328;50.860;10.562;2024-03-07T02:06:52;97161.75;;;4.09;64.89
28000;BME280;15328;50.860;10.562;2024-03-07T02:11:53;97157.47;;;4.08;65.08
28000;BME280;15328;50.860;10.562;2024-03-07T02:16:54;97147.59;;;4.10;64.69
28000;BME280;15328;50.860;10.562;2024-03-07T02:21:56;97147.56;;;4.02;64.91
28000;BME280;15328;50.860;10.562;2024-03-07T02:26:56;97142.03;;;4.13;64.49
28000;BME280;15328;50.860;10.562;2024-03-07T02:31:59;97142.69;;;4.15;64.80
28000;BME280;15328;50.860;10.562;2024-03-07T02:36:59;97143.88;;;4.21;64.71
28000;BME280;15328;50.860;10.562;2024-03-07T02:42:00;97137.94;;;4.27;64.46
28000;BME280;15328;50.860;10.562;2024-03-07T02:47:00;97146.66;;;4.27;64.88
28000;BME280;15328;50.860;10.562;2024-03-07T02:52:04;97143.69;;;4.22;64.22
28000;BME280;15328;50.860;10.562;2024-03-07T02:57:07;97140.06;;;4.15;64.63
28000;BME280;15328;50.860;10.562;2024-03-07T03:02:07;97143.53;;;4.16;64.62
28000;BME280;15328;50.860;10.562;2024-03-07T03:07:08;97136.59;;;4.15;65.13
28000;BME280;15328;50.860;10.562;2024-03-07T03:12:09;97129.72;;;4.30;65.01
28000;BME280;15328;50.860;10.562;2024-03-07T03:17:10;97131.25;;;4.41;64.03
28000;BME280;15328;50.860;10.562;2024-03-07T03:22:11;97128.59;;;4.49;63.47
28000;BME280;15328;50.860;10.562;2024-03-07T03:27:11;97124.16;;;4.49;64.08
28000;BME280;15328;50.860;10.562;2024-03-07T03:32:12;97125.31;;;4.47;64.17
28000;BME280;15328;50.860;10.562;2024-03-07T03:37:12;97133.53;;;4.52;63.82
28000;BME280;15328;50.860;10.562;2024-03-07T03:42:12;97128.28;;;4.60;64.15
28000;BME280;15328;50.860;10.562;2024-03-07T03:47:13;97133.75;;;4.67;63.85
28000;BME280;15328;50.860;10.562;2024-03-07T03:52:14;97128.09;;;4.61;64.11
28000;BME280;15328;50.860;10.562;2024-03-07T03:57:14;97119.91;;;4.73;63.73
28000;BME280;15328;50.860;10.562;2024-03-07T04:02:14;97127.63;;;4.74;63.99
28000;BME280;15328;50.860;10.562;2024-03-07T04:07:17;97123.81;;;4.60;64.29
28000;BME280;15328;50.860;10.562;2024-03-07T04:12:19;97124.97;;;4.50;64.21
28000;BME280;15328;50.860;10.562;2024-03-07T04:17:19;97127.44;;;4.51;65.18
28000;BME280;15328;50.860;10.562;2024-03-07T04:22:21;97128.94;;;4.46;64.46
28000;BME280;15328;50.860;10.562;2024-03-07T04:27:21;97120.00;;;4.30;64.72
28000;BME280;15328;50.860;10.562;2024-03-07T04:32:22;97122.63;;;4.30;65.97
28000;BME280;15328;50.860;10.562;2024-03-07T04:37:23;97114.56;;;4.32;66.55
28000;BME280;15328;50.860;10.562;2024-03-07T04:42:23;97116.09;;;4.43;66.82
28000;BME280;15328;50.860;10.562;2024-03-07T04:47:24;97112.47;;;4.44;66.41
28000;BME280;15328;50.860;10.562;2024-03-07T04:52:24;97120.03;;;4.55;66.02
28000;BME280;15328;50.860;10.562;2024-03-07T04:57:24;97124.31;;;4.48;66.56
28000;BME280;15328;50.860;10.562;2024-03-07T05:02:25;97122.34;;;4.50;66.31
28000;BME280;15328;50.860;10.562;2024-03-07T05:07:25;97121.53;;;4.49;67.07
28000;BME280;15328;50.860;10.562;2024-03-07T05:12:26;97129.09;;;4.52;66.64
28000;BME280;15328;50.860;10.562;2024-03-07T05:17:27;97125.97;;;4.57;66.30
28000;BME280;15328;50.860;10.562;2024-03-07T05:22:28;97125.63;;;4.60;66.55
28000;BME280;15328;50.860;10.562;2024-03-07T05:27:30;97118.88;;;4.57;67.17
28000;BME280;15328;50.860;10.562;2024-03-07T05:32:31;97125.50;;;4.70;66.86
28000;BME280;15328;50.860;10.562;2024-03-07T05:37:31;97120.22;;;4.70;67.04
28000;BME280;15328;50.860;10.562;2024-03-07T05:42:32;97124.66;;;4.61;67.60
28000;BME280;15328;50.860;10.562;2024-03-07T05:47:32;97124.16;;;4.65;67.55
28000;BME280;15328;50.860;10.562;2024-03-07T05:52:32;97120.53;;;4.58;67.53
28000;BME280;15328;50.860;10.562;2024-03-07T05:57:33;97127.66;;;4.66;68.11
28000;BME280;15328;50.860;10.562;2024-03-07T06:02:33;97122.19;;;4.76;67.31
28000;BME280;15328;50.860;10.562;2024-03-07T06:07:33;97133.91;;;4.73;67.10
28000;BME280;15328;50.860;10.562;2024-03-07T06:12:34;97139.00;;;4.75;67.30
28000;BME280;15328;50.860;10.562;2024-03-07T06:17:34;97128.47;;;4.75;67.60
28000;BME280;15328;50.860;10.562;2024-03-07T06:22:35;97125.31;;;4.63;67.63
28000;BME280;15328;50.860;10.562;2024-03-07T06:27:35;97123.81;;;4.60;68.17
28000;BME280;15328;50.860;10.562;2024-03-07T06:32:38;97137.50;;;4.56;68.46
28000;BME280;15328;50.860;10.562;2024-03-07T06:37:39;97139.47;;;4.62;68.41
28000;BME280;15328;50.860;10.562;2024-03-07T06:42:40;97134.56;;;4.67;67.98
28000;BME280;15328;50.860;10.562;2024-03-07T06:47:40;97137.03;;;4.69;68.51
28000;BME280;15328;50.860;10.562;2024-03-07T06:52:41;97129.44;;;4.74;68.17
28000;BME280;15328;50.860;10.562;2024-03-07T06:57:42;97141.31;;;4.78;68.21
28000;BME280;15328;50.860;10.562;2024-03-07T07:02:43;97139.50;;;4.70;68.42
28000;BME280;15328;50.860;10.562;2024-03-07T07:07:44;97134.22;;;4.70;68.47
28000;BME280;15328;50.860;10.562;2024-03-07T07:12:45;97135.06;;;4.71;69.01
28000;BME280;15328;50.860;10.562;2024-03-07T07:17:47;97133.75;;;4.67;69.24
28000;BME280;15328;50.860;10.562;2024-03-07T07:22:50;97135.56;;;4.66;69.44
28000;BME280;15328;50.860;10.562;2024-03-07T07:27:53;97141.81;;;4.73;68.96
28000;BME280;15328;50.860;10.562;2024-03-07T07:32:53;97138.66;;;4.61;68.95
28000;BME280;15328;50.860;10.562;2024-03-07T07:37:54;97137.16;;;4.59;69.31
28000;BME280;15328;50.860;10.562;2024-03-07T07:42:55;97127.63;;;4.58;69.82
28000;BME280;15328;50.860;10.562;2024-03-07T07:47:56;97125.63;;;4.60;70.14
28000;BME280;15328;50.860;10.562;2024-03-07T07:52:57;97129.75;;;4.62;69.92
28000;BME280;15328;50.860;10.562;2024-03-07T07:57:59;97130.44;;;4.73;69.18
28000;BME280;15328;50.860;10.562;2024-03-07T08:03:01;97122.53;;;4.73;69.63
28000;BME280;15328;50.860;10.562;2024-03-07T08:08:03;97129.28;;;4.67;70.27
28000;BME280;15328;50.860;10.562;2024-03-07T08:13:05;97123.53;;;4.72;70.73
28000;BME280;15328;50.860;10.562;2024-03-07T08:18:13;97123.50;;;4.80;69.94
28000;BME280;15328;50.860;10.562;2024-03-07T08:23:13;97128.97;;;4.70;71.16
28000;BME280;15328;50.860;10.562;2024-03-07T08:28:14;97123.84;;;4.77;70.68
28000;BME280;15328;50.860;10.562;2024-03-07T08:33:14;97119.06;;;4.80;71.19
28000;BME280;15328;50.860;10.562;2024-03-07T08:38:15;97117.41;;;4.87;70.98
28000;BME280;15328;50.860;10.562;2024-03-07T08:43:15;97108.69;;;4.95;71.20
28000;BME280;15328;50.860;10.562;2024-03-07T08:48:15;97105.22;;;4.94;71.66
28000;BME280;15328;50.860;10.562;2024-03-07T08:53:16;97108.69;;;5.03;71.65
28000;BME280;15328;50.860;10.562;2024-03-07T08:58:16;97104.06;;;5.05;72.05
28000;BME280;15328;50.860;10.562;2024-03-07T09:03:16;97100.41;;;5.14;71.26
28000;BME280;15328;50.860;10.562;2024-03-07T09:08:18;97104.53;;;5.25;71.59
28000;BME280;15328;50.860;10.562;2024-03-07T09:13:19;97104.03;;;5.30;71.17
28000;BME280;15328;50.860;10.562;2024-03-07T09:18:19;97092.97;;;5.26;71.62
28000;BME280;15328;50.860;10.562;2024-03-07T09:23:19;97095.44;;;5.27;72.05
28000;BME280;15328;50.860;10.562;2024-03-07T09:28:20;97093.50;;;5.21;71.62
28000;BME280;15328;50.860;10.562;2024-03-07T09:33:20;97093.97;;;5.25;72.21
28000;BME280;15328;50.860;10.562;2024-03-07T09:38:21;97091.69;;;5.22;71.72
28000;BME280;15328;50.860;10.562;2024-03-07T09:43:24;97086.06;;;5.17;72.65
28000;BME280;15328;50.860;10.562;2024-03-07T09:48:25;97089.53;;;5.25;73.05
28000;BME280;15328;50.860;10.562;2024-03-07T09:53:28;97086.47;;;5.45;73.07
28000;BME280;15328;50.860;10.562;2024-03-07T09:58:29;97084.97;;;5.58;73.34
28000;BME280;15328;50.860;10.562;2024-03-07T10:03:31;97091.72;;;6.00;75.61
28000;BME280;15328;50.860;10.562;2024-03-07T10:08:35;97092.38;;;6.33;70.99
28000;BME280;15328;50.860;10.562;2024-03-07T10:13:36;97086.78;;;6.28;69.85
28000;BME280;15328;50.860;10.562;2024-03-07T10:18:42;97083.75;;;6.62;71.41
28000;BME280;15328;50.860;10.562;2024-03-07T10:23:43;97084.75;;;6.99;69.77
28000;BME280;15328;50.860;10.562;2024-03-07T10:28:44;97092.19;;;7.33;62.77
28000;BME280;15328;50.860;10.562;2024-03-07T10:33:44;97085.16;;;7.25;60.26
28000;BME280;15328;50.860;10.562;2024-03-07T10:38:45;97089.28;;;7.28;60.94
28000;BME280;15328;50.860;10.562;2024-03-07T10:43:47;97075.84;;;7.88;60.45
28000;BME280;15328;50.860;10.562;2024-03-07T10:48:55;97087.06;;;8.41;55.48
28000;BME280;15328;50.860;10.562;2024-03-07T10:54:05;97089.50;;;8.06;53.62
28000;BME280;15328;50.860;10.562;2024-03-07T10:59:21;97089.19;;;7.80;54.32
28000;BME280;15328;50.860;10.562;2024-03-07T11:04:25;97077.72;;;8.45;56.50
28000;BME280;15328;50.860;10.562;2024-03-07T11:09:26;97071.97;;;9.34;52.73
28000;BME280;15328;50.860;10.562;2024-03-07T11:14:34;97080.84;;;9.54;49.88
28000;BME280;15328;50.860;10.562;2024-03-07T11:19:35;97081.88;;;9.53;45.00
28000;BME280;15328;50.860;10.562;2024-03-07T11:24:39;97072.91;;;9.26;45.89
28000;BME280;15328;50.860;10.562;2024-03-07T11:29:52;97065.56;;;9.28;45.56
28000;BME280;15328;50.860;10.562;2024-03-07T11:34:57;97062.25;;;9.19;44.65
28000;BME280;15328;50.860;10.562;2024-03-07T11:39:58;97057.97;;;9.94;44.35
28000;BME280;15328;50.860;10.562;2024-03-07T11:45:08;97057.16;;;10.68;41.32
28000;BME280;15328;50.860;10.562;2024-03-07T11:50:08;97051.41;;;11.37;40.57
28000;BME280;15328;50.860;10.562;2024-03-07T11:55:12;97042.56;;;11.50;39.14
28000;BME280;15328;50.860;10.562;2024-03-07T12:00:12;97053.28;;;10.90;39.09
28000;BME280;15328;50.860;10.562;2024-03-07T12:05:15;97054.13;;;10.10;39.90
28000;BME280;15328;50.860;10.562;2024-03-07T12:10:16;97044.78;;;9.73;41.27
28000;BME280;15328;50.860;10.562;2024-03-07T12:15:24;97037.53;;;9.53;41.05
28000;BME280;15328;50.860;10.562;2024-03-07T12:20:25;97033.22;;;9.11;42.24
28000;BME280;15328;50.860;10.562;2024-03-07T12:25:27;97029.44;;;8.99;40.07
28000;BME280;15328;50.860;10.562;2024-03-07T12:30:29;97028.75;;;8.41;41.26
28000;BME280;15328;50.860;10.562;2024-03-07T12:35:33;97025.78;;;8.15;42.04
28000;BME280;15328;50.860;10.562;2024-03-07T12:40:33;97011.53;;;7.94;41.69
28000;BME280;15328;50.860;10.562;2024-03-07T12:45:34;97013.50;;;7.71;43.27
28000;BME280;15328;50.860;10.562;2024-03-07T12:50:34;97012.00;;;7.83;42.67
28000;BME280;15328;50.860;10.562;2024-03-07T12:55:35;97013.28;;;7.87;44.42
28000;BME280;15328;50.860;10.562;2024-03-07T13:00:36;97007.41;;;7.92;42.13
28000;BME280;15328;50.860;10.562;2024-03-07T13:05:37;97000.75;;;7.96;42.28
28000;BME280;15328;50.860;10.562;2024-03-07T13:10:43;96997.47;;;8.15;42.98
28000;BME280;15328;50.860;10.562;2024-03-07T13:15:44;96992.03;;;8.94;43.11
28000;BME280;15328;50.860;10.562;2024-03-07T13:20:47;96989.38;;;9.63;42.40
28000;BME280;15328;50.860;10.562;2024-03-07T13:25:48;96998.41;;;9.82;40.17
28000;BME280;15328;50.860;10.562;2024-03-07T13:30:48;96992.66;;;9.30;39.59
28000;BME280;15328;50.860;10.562;2024-03-07T13:35:49;96990.53;;;9.13;40.11
28000;BME280;15328;50.860;10.562;2024-03-07T13:40:50;96995.00;;;8.78;40.06
28000;BME280;15328;50.860;10.562;2024-03-07T13:45:50;96982.72;;;8.49;40.80
28000;BME280;15328;50.860;10.562;2024-03-07T13:50:51;96981.38;;;8.17;41.55
28000;BME280;15328;50.860;10.562;2024-03-07T13:56:12;96984.38;;;7.92;42.14
28000;BME280;15328;50.860;10.562;2024-03-07T14:11:57;96986.31;;;7.33;43.09
28000;BME280;15328;50.860;10.562;2024-03-07T14:17:44;96976.31;;;7.13;43.84
28000;BME280;15328;50.860;10.562;2024-03-07T14:23:19;96986.25;;;6.97;44.13
28000;BME280;15328;50.860;10.562;2024-03-07T14:28:48;96979.22;;;6.89;43.94
28000;BME280;15328;50.860;10.562;2024-03-07T14:39:08;96982.38;;;6.85;43.16
28000;BME280;15328;50.860;10.562;2024-03-07T14:44:15;96984.94;;;6.63;43.83
28000;BME280;15328;50.860;10.562;2024-03-07T14:49:17;96973.72;;;6.61;44.10
28000;BME280;15328;50.860;10.562;2024-03-07T14:54:17;96971.19;;;6.68;42.68
28000;BME280;15328;50.860;10.562;2024-03-07T14:59:18;96974.50;;;6.47;43.62
28000;BME280;15328;50.860;10.562;2024-03-07T15:04:18;96975.94;;;6.35;43.92
28000;BME280;15328;50.860;10.562;2024-03-07T15:09:18;96960.19;;;6.18;44.70
28000;BME280;15328;50.860;10.562;2024-03-07T15:14:19;96963.38;;;6.14;44.58
28000;BME280;15328;50.860;10.562;2024-03-07T15:19:20;96954.00;;;6.11;44.33
28000;BME280;15328;50.860;10.562;2024-03-07T15:24:20;96958.34;;;6.04;44.59
28000;BME280;15328;50.860;10.562;2024-03-07T15:29:21;96955.16;;;6.09;44.88
28000;BME280;15328;50.860;10.562;2024-03-07T15:34:22;96955.38;;;5.99;45.88
28000;BME280;15328;50.860;10.562;2024-03-07T15:39:22;96952.94;;;5.98;45.71
28000;BME280;15328;50.860;10.562;2024-03-07T15:44:30;96946.34;;;5.94;46.32
28000;BME280;15328;50.860;10.562;2024-03-07T15:49:30;96943.38;;;5.97;46.49
28000;BME280;15328;50.860;10.562;2024-03-07T15:54:31;96949.50;;;5.89;46.76
28000;BME280;15328;50.860;10.562;2024-03-07T15:59:31;96946.41;;;5.85;46.33
28000;BME280;15328;50.860;10.562;2024-03-07T16:04:31;96962.31;;;5.69;46.36
28000;BME280;15328;50.860;10.562;2024-03-07T16:09:32;96958.53;;;5.41;47.24
28000;BME280;15328;50.860;10.562;2024-03-07T16:14:32;96958.06;;;5.37;47.18
28000;BME280;15328;50.860;10.562;2024-03-07T16:19:33;96952.31;;;5.34;47.12
28000;BME280;15328;50.860;10.562;2024-03-07T16:24:33;96944.56;;;5.32;47.20
28000;BME280;15328;50.860;10.562;2024-03-07T16:29:37;96945.22;;;5.34;47.32
28000;BME280;15328;50.860;10.562;2024-03-07T16:34:38;96946.44;;;5.23;48.15
28000;BME280;15328;50.860;10.562;2024-03-07T16:39:38;96952.81;;;5.29;47.39
28000;BME280;15328;50.860;10.562;2024-03-07T16:44:40;96951.72;;;5.15;48.07
28000;BME280;15328;50.860;10.562;2024-03-07T16:49:41;96947.59;;;5.21;47.93
28000;BME280;15328;50.860;10.562;2024-03-07T16:54:42;96948.81;;;5.02;48.01
28000;BME280;15328;50.860;10.562;2024-03-07T16:59:42;96950.31;;;4.88;48.66
28000;BME280;15328;50.860;10.562;2024-03-07T17:04:43;96951.16;;;4.89;48.55
28000;BME280;15328;50.860;10.562;2024-03-07T17:09:43;96949.72;;;4.78;48.37
28000;BME280;15328;50.860;10.562;2024-03-07T17:14:44;96955.00;;;4.62;49.46
28000;BME280;15328;50.860;10.562;2024-03-07T17:19:44;96958.63;;;4.69;49.34
28000;BME280;15328;50.860;10.562;2024-03-07T17:24:47;96963.72;;;4.79;48.66
28000;BME280;15328;50.860;10.562;2024-03-07T17:29:49;96965.53;;;4.62;49.20
28000;BME280;15328;50.860;10.562;2024-03-07T17:34:51;96976.59;;;4.57;48.13
28000;BME280;15328;50.860;10.562;2024-03-07T17:39:51;96972.81;;;4.52;49.46
28000;BME280;15328;50.860;10.562;2024-03-07T17:44:54;96977.75;;;4.55;49.35
28000;BME280;15328;50.860;10.562;2024-03-07T17:49:55;96970.53;;;4.41;48.80
28000;BME280;15328;50.860;10.562;2024-03-07T17:54:55;96975.63;;;4.42;49.28
28000;BME280;15328;50.860;10.562;2024-03-07T17:59:55;96979.25;;;4.41;49.64
28000;BME280;15328;50.860;10.562;2024-03-07T18:04:56;96980.22;;;4.32;49.38
28000;BME280;15328;50.860;10.562;2024-03-07T18:09:57;96986.31;;;4.32;50.44
28000;BME280;15328;50.860;10.562;2024-03-07T18:14:58;96976.94;;;4.38;49.69
28000;BME280;15328;50.860;10.562;2024-03-07T18:20:00;96974.47;;;4.28;49.85
28000;BME280;15328;50.860;10.562;2024-03-07T18:25:04;96981.22;;;4.23;50.03
28000;BME280;15328;50.860;10.562;2024-03-07T18:30:05;96969.22;;;4.20;49.39
28000;BME280;15328;50.860;10.562;2024-03-07T18:35:14;96969.53;;;4.25;49.76
28000;BME280;15328;50.860;10.562;2024-03-07T18:40:16;96968.56;;;4.02;49.81
28000;BME280;15328;50.860;10.562;2024-03-07T18:45:22;96976.13;;;4.05;50.65
28000;BME280;15328;50.860;10.562;2024-03-07T18:50:26;96963.94;;;3.96;50.55
28000;BME280;15328;50.860;10.562;2024-03-07T18:55:27;96964.09;;;3.94;50.87
28000;BME280;15328;50.860;10.562;2024-03-07T19:00:31;96957.66;;;3.81;51.28
28000;BME280;15328;50.860;10.562;2024-03-07T19:05:38;96958.16;;;3.76;51.80
28000;BME280;15328;50.860;10.562;2024-03-07T19:10:41;96953.06;;;3.75;51.50
28000;BME280;15328;50.860;10.562;2024-03-07T19:15:46;96954.03;;;3.73;51.73
28000;BME280;15328;50.860;10.562;2024-03-07T19:20:57;96945.31;;;3.81;51.21
28000;BME280;15328;50.860;10.562;2024-03-07T19:25:58;96935.28;;;3.68;51.26
28000;BME280;15328;50.860;10.562;2024-03-07T19:31:03;96934.78;;;3.65;52.09
28000;BME280;15328;50.860;10.562;2024-03-07T19:36:04;96938.09;;;3.67;52.12
28000;BME280;15328;50.860;10.562;2024-03-07T19:41:05;96940.22;;;3.80;51.94
28000;BME280;15328;50.860;10.562;2024-03-07T19:46:11;96931.84;;;3.68;51.78
28000;BME280;15328;50.860;10.562;2024-03-07T19:51:12;96934.97;;;3.63;52.68
28000;BME280;15328;50.860;10.562;2024-03-07T19:56:18;96938.59;;;3.70;51.99
28000;BME280;15328;50.860;10.562;2024-03-07T20:01:18;96937.59;;;3.71;52.79
28000;BME280;15328;50.860;10.562;2024-03-07T20:06:18;96926.91;;;3.73;52.52
28000;BME280;15328;50.860;10.562;2024-03-07T20:11:19;96930.69;;;3.79;52.45
28000;BME280;15328;50.860;10.562;2024-03-07T20:16:19;96919.19;;;3.80;52.63
28000;BME280;15328;50.860;10.562;2024-03-07T20:21:19;96912.44;;;3.93;52.60
28000;BME280;15328;50.860;10.562;2024-03-07T20:26:20;96908.84;;;3.86;52.25
28000;BME280;15328;50.860;10.562;2024-03-07T20:31:20;96899.47;;;3.84;52.08
28000;BME280;15328;50.860;10.562;2024-03-07T20:36:20;96893.84;;;3.79;52.37
28000;BME280;15328;50.860;10.562;2024-03-07T20:41:21;96906.38;;;3.85;52.44
28000;BME280;15328;50.860;10.562;2024-03-07T20:46:21;96900.44;;;3.99;52.57
28000;BME280;15328;50.860;10.562;2024-03-07T20:51:23;96896.63;;;4.01;52.60
28000;BME280;15328;50.860;10.562;2024-03-07T20:56:25;96894.19;;;4.00;53.11
28000;BME280;15328;50.860;10.562;2024-03-07T21:01:26;96895.16;;;3.99;53.01
28000;BME280;15328;50.860;10.562;2024-03-07T21:06:26;96886.91;;;4.10;52.83
28000;BME280;15328;50.860;10.562;2024-03-07T21:11:27;96892.34;;;4.25;52.77
28000;BME280;15328;50.860;10.562;2024-03-07T21:16:27;96882.47;;;4.19;52.69
28000;BME280;15328;50.860;10.562;2024-03-07T21:21:28;96876.56;;;4.17;52.35
28000;BME280;15328;50.860;10.562;2024-03-07T21:26:28;96878.72;;;4.13;52.58
28000;BME280;15328;50.860;10.562;2024-03-07T21:31:29;96877.06;;;3.96;51.97
28000;BME280;15328;50.860;10.562;2024-03-07T21:36:29;96875.78;;;3.84;52.74
28000;BME280;15328;50.860;10.562;2024-03-07T21:41:29;96872.47;;;3.65;53.17
28000;BME280;15328;50.860;10.562;2024-03-07T21:46:31;96866.22;;;3.75;53.58
28000;BME280;15328;50.860;10.562;2024-03-07T21:51:33;96865.09;;;3.85;52.79
28000;BME280;15328;50.860;10.562;2024-03-07T21:56:35;96858.50;;;3.89;52.78
28000;BME280;15328;50.860;10.562;2024-03-07T22:01:36;96867.03;;;3.91;52.53
28000;BME280;15328;50.860;10.562;2024-03-07T22:06:42;96854.56;;;3.85;52.67
28000;BME280;15328;50.860;10.562;2024-03-07T22:11:45;96850.25;;;3.76;52.91
28000;BME280;15328;50.860;10.562;2024-03-07T22:16:54;96851.91;;;3.69;52.82
28000;BME280;15328;50.860;10.562;2024-03-07T22:21:55;96853.53;;;3.54;52.73
28000;BME280;15328;50.860;10.562;2024-03-07T22:26:56;96859.47;;;3.39;53.13
28000;BME280;15328;50.860;10.562;2024-03-07T22:31:56;96859.63;;;3.30;53.28
28000;BME280;15328;50.860;10.562;2024-03-07T22:36:57;96855.66;;;3.26;53.47
28000;BME280;15328;50.860;10.562;2024-03-07T22:41:57;96853.66;;;3.12;54.16
28000;BME280;15328;50.860;10.562;2024-03-07T22:46:58;96843.97;;;3.04;53.94
28000;BME280;15328;50.860;10.562;2024-03-07T22:51:58;96849.66;;;2.91;54.43
28000;BME280;15328;50.860;10.562;2024-03-07T22:56:58;96841.94;;;2.90;54.79
28000;BME280;15328;50.860;10.562;2024-03-07T23:02:00;96839.78;;;2.77;54.85
28000;BME280;15328;50.860;10.562;2024-03-07T23:07:00;96831.16;;;2.59;54.79
28000;BME280;15328;50.860;10.562;2024-03-07T23:12:01;96825.25;;;2.57;55.82
28000;BME280;15328;50.860;10.562;2024-03-07T23:17:01;96821.59;;;2.50;55.55
28000;BME280;15328;50.860;10.562;2024-03-07T23:22:02;96817.28;;;2.40;55.72
28000;BME280;15328;50.860;10.562;2024-03-07T23:27:07;96815.28;;;2.34;56.25
28000;BME280;15328;50.860;10.562;2024-03-07T23:32:09;96812.63;;;2.26;55.53
28000;BME280;15328;50.860;10.562;2024-03-07T23:37:10;96805.91;;;2.24;56.87
28000;BME280;15328;50.860;10.562;2024-03-07T23:42:12;96805.00;;;2.15;56.68
28000;BME280;15328;50.860;10.562;2024-03-07T23:47:12;96796.44;;;2.05;57.57
28000;BME280;15328;50.860;10.562;2024-03-07T23:52:13;96793.84;;;2.13;56.80
28000;BME280;15328;50.860;10.562;2024-03-07T23:57:13;96785.44;;;2.01;56.36
